sensor_id;sensor_type;location;lat;lon;timestamp;P1;durP1;ratioP1;P2;durP2;ratioP2
44774;SDS011;31340;51.402;0.016;2023-04-15T00:01:57;19.02;;;13.00;;
44774;SDS011;31340;51.402;0.016;2023-04-15T00:04:26;14.45;;;10.88;;
44774;SDS011;31340;51.402;0.016;2023-04-15T00:06:54;18.17;;;12.43;;
44774;SDS011;31340;51.402;0.016;2023-04-15T00:09:21;16.63;;;10.45;;
44774;SDS011;31340;51.402;0.016;2023-04-15T00:11:49;15.05;;;11.23;;
44774;SDS011;31340;51.402;0.016;2023-04-15T00:14:17;18.85;;;12.93;;
44774;SDS011;31340;51.402;0.016;2023-04-15T00:16:45;17.65;;;10.63;;
44774;SDS011;31340;51.402;0.016;2023-04-15T00:19:13;14.35;;;10.68;;
44774;SDS011;31340;51.402;0.016;2023-04-15T00:21:40;15.60;;;10.43;;
44774;SDS011;31340;51.402;0.016;2023-04-15T00:24:08;16.48;;;11.40;;
44774;SDS011;31340;51.402;0.016;2023-04-15T00:26:35;18.58;;;11.52;;
44774;SDS011;31340;51.402;0.016;2023-04-15T00:29:03;18.17;;;11.55;;
44774;SDS011;31340;51.402;0.016;2023-04-15T00:31:31;17.15;;;11.55;;
44774;SDS011;31340;51.402;0.016;2023-04-15T00:33:59;16.75;;;11.43;;
44774;SDS011;31340;51.402;0.016;2023-04-15T00:36:29;14.77;;;10.25;;
44774;SDS011;31340;51.402;0.016;2023-04-15T00:38:57;14.88;;;10.45;;
44774;SDS011;31340;51.402;0.016;2023-04-15T00:41:25;18.38;;;11.63;;
44774;SDS011;31340;51.402;0.016;2023-04-15T00:43:53;18.00;;;10.93;;
44774;SDS011;31340;51.402;0.016;2023-04-15T00:46:20;15.65;;;10.65;;
44774;SDS011;31340;51.402;0.016;2023-04-15T00:48:48;14.00;;;9.60;;
44774;SDS011;31340;51.402;0.016;2023-04-15T00:51:17;12.27;;;8.55;;
44774;SDS011;31340;51.402;0.016;2023-04-15T00:53:44;10.32;;;7.68;;
44774;SDS011;31340;51.402;0.016;2023-04-15T00:56:12;10.80;;;7.43;;
44774;SDS011;31340;51.402;0.016;2023-04-15T00:58:40;9.63;;;6.63;;
44774;SDS011;31340;51.402;0.016;2023-04-15T01:01:07;9.65;;;7.00;;
44774;SDS011;31340;51.402;0.016;2023-04-15T01:03:36;11.60;;;7.80;;
44774;SDS011;31340;51.402;0.016;2023-04-15T01:06:03;14.20;;;7.35;;
44774;SDS011;31340;51.402;0.016;2023-04-15T01:08:31;10.55;;;6.95;;
44774;SDS011;31340;51.402;0.016;2023-04-15T01:11:00;8.98;;;6.40;;
44774;SDS011;31340;51.402;0.016;2023-04-15T01:13:29;8.48;;;5.95;;
44774;SDS011;31340;51.402;0.016;2023-04-15T01:15:57;7.28;;;5.72;;
44774;SDS011;31340;51.402;0.016;2023-04-15T01:18:24;9.32;;;6.40;;
44774;SDS011;31340;51.402;0.016;2023-04-15T01:20:53;8.25;;;5.97;;
44774;SDS011;31340;51.402;0.016;2023-04-15T01:23:23;7.72;;;5.60;;
44774;SDS011;31340;51.402;0.016;2023-04-15T01:25:50;10.23;;;6.03;;
44774;SDS011;31340;51.402;0.016;2023-04-15T01:28:20;8.20;;;5.78;;
44774;SDS011;31340;51.402;0.016;2023-04-15T01:30:48;8.88;;;6.15;;
44774;SDS011;31340;51.402;0.016;2023-04-15T01:33:15;7.60;;;6.10;;
44774;SDS011;31340;51.402;0.016;2023-04-15T01:36:04;13.25;;;6.72;;
44774;SDS011;31340;51.402;0.016;2023-04-15T01:38:34;8.88;;;6.15;;
44774;SDS011;31340;51.402;0.016;2023-04-15T01:41:02;9.40;;;6.10;;
44774;SDS011;31340;51.402;0.016;2023-04-15T01:43:32;12.10;;;5.95;;
44774;SDS011;31340;51.402;0.016;2023-04-15T01:46:03;9.48;;;6.57;;
44774;SDS011;31340;51.402;0.016;2023-04-15T01:48:33;9.73;;;7.03;;
44774;SDS011;31340;51.402;0.016;2023-04-15T01:51:04;9.40;;;6.10;;
44774;SDS011;31340;51.402;0.016;2023-04-15T01:53:33;10.43;;;7.28;;
44774;SDS011;31340;51.402;0.016;2023-04-15T01:56:03;14.43;;;6.93;;
44774;SDS011;31340;51.402;0.016;2023-04-15T01:58:32;10.75;;;7.80;;
44774;SDS011;31340;51.402;0.016;2023-04-15T02:01:01;10.95;;;8.32;;
44774;SDS011;31340;51.402;0.016;2023-04-15T02:03:32;14.20;;;8.20;;
44774;SDS011;31340;51.402;0.016;2023-04-15T02:06:01;10.48;;;6.43;;
44774;SDS011;31340;51.402;0.016;2023-04-15T02:08:31;9.93;;;7.20;;
44774;SDS011;31340;51.402;0.016;2023-04-15T02:11:00;13.85;;;7.80;;
44774;SDS011;31340;51.402;0.016;2023-04-15T02:13:29;11.98;;;7.20;;
44774;SDS011;31340;51.402;0.016;2023-04-15T02:15:58;8.82;;;6.70;;
44774;SDS011;31340;51.402;0.016;2023-04-15T02:18:27;10.35;;;6.68;;
44774;SDS011;31340;51.402;0.016;2023-04-15T02:20:56;9.40;;;6.55;;
44774;SDS011;31340;51.402;0.016;2023-04-15T02:23:26;9.73;;;6.90;;
44774;SDS011;31340;51.402;0.016;2023-04-15T02:25:55;10.88;;;7.05;;
44774;SDS011;31340;51.402;0.016;2023-04-15T02:28:24;12.23;;;7.00;;
44774;SDS011;31340;51.402;0.016;2023-04-15T02:30:53;10.75;;;6.97;;
44774;SDS011;31340;51.402;0.016;2023-04-15T02:33:24;10.00;;;7.50;;
44774;SDS011;31340;51.402;0.016;2023-04-15T02:35:53;9.85;;;6.63;;
44774;SDS011;31340;51.402;0.016;2023-04-15T02:38:22;11.68;;;6.68;;
44774;SDS011;31340;51.402;0.016;2023-04-15T02:40:51;9.45;;;7.05;;
44774;SDS011;31340;51.402;0.016;2023-04-15T02:43:20;12.88;;;8.02;;
44774;SDS011;31340;51.402;0.016;2023-04-15T02:45:50;13.15;;;8.57;;
44774;SDS011;31340;51.402;0.016;2023-04-15T02:48:20;10.23;;;7.82;;
44774;SDS011;31340;51.402;0.016;2023-04-15T02:50:49;12.85;;;8.73;;
44774;SDS011;31340;51.402;0.016;2023-04-15T02:53:19;10.95;;;8.10;;
44774;SDS011;31340;51.402;0.016;2023-04-15T02:55:48;12.60;;;8.88;;
44774;SDS011;31340;51.402;0.016;2023-04-15T02:58:17;12.43;;;8.40;;
44774;SDS011;31340;51.402;0.016;2023-04-15T03:00:46;9.68;;;7.80;;
44774;SDS011;31340;51.402;0.016;2023-04-15T03:03:14;11.63;;;7.38;;
44774;SDS011;31340;51.402;0.016;2023-04-15T03:05:44;11.07;;;7.10;;
44774;SDS011;31340;51.402;0.016;2023-04-15T03:08:13;7.85;;;6.10;;
44774;SDS011;31340;51.402;0.016;2023-04-15T03:10:42;9.10;;;6.43;;
44774;SDS011;31340;51.402;0.016;2023-04-15T03:13:10;8.70;;;6.85;;
44774;SDS011;31340;51.402;0.016;2023-04-15T03:15:40;9.63;;;6.57;;
44774;SDS011;31340;51.402;0.016;2023-04-15T03:18:09;8.52;;;5.70;;
44774;SDS011;31340;51.402;0.016;2023-04-15T03:20:38;6.70;;;5.35;;
44774;SDS011;31340;51.402;0.016;2023-04-15T03:23:07;8.75;;;6.38;;
44774;SDS011;31340;51.402;0.016;2023-04-15T03:25:36;7.32;;;5.60;;
44774;SDS011;31340;51.402;0.016;2023-04-15T03:28:07;9.23;;;5.75;;
44774;SDS011;31340;51.402;0.016;2023-04-15T03:30:36;8.10;;;6.00;;
44774;SDS011;31340;51.402;0.016;2023-04-15T03:33:05;8.20;;;5.90;;
44774;SDS011;31340;51.402;0.016;2023-04-15T03:35:34;9.55;;;6.45;;
44774;SDS011;31340;51.402;0.016;2023-04-15T03:38:03;8.50;;;5.28;;
44774;SDS011;31340;51.402;0.016;2023-04-15T03:40:31;9.27;;;6.50;;
44774;SDS011;31340;51.402;0.016;2023-04-15T03:43:00;9.07;;;5.53;;
44774;SDS011;31340;51.402;0.016;2023-04-15T03:45:29;9.82;;;6.35;;
44774;SDS011;31340;51.402;0.016;2023-04-15T03:47:58;8.65;;;5.88;;
44774;SDS011;31340;51.402;0.016;2023-04-15T03:50:44;8.52;;;6.10;;
44774;SDS011;31340;51.402;0.016;2023-04-15T03:53:13;9.38;;;6.40;;
44774;SDS011;31340;51.402;0.016;2023-04-15T03:55:43;8.30;;;6.00;;
44774;SDS011;31340;51.402;0.016;2023-04-15T03:58:12;7.45;;;6.10;;
44774;SDS011;31340;51.402;0.016;2023-04-15T04:00:40;10.60;;;6.53;;
44774;SDS011;31340;51.402;0.016;2023-04-15T04:03:09;9.25;;;6.45;;
44774;SDS011;31340;51.402;0.016;2023-04-15T04:05:39;9.40;;;7.07;;
44774;SDS011;31340;51.402;0.016;2023-04-15T04:08:09;8.88;;;7.00;;
44774;SDS011;31340;51.402;0.016;2023-04-15T04:10:41;9.13;;;6.55;;
44774;SDS011;31340;51.402;0.016;2023-04-15T04:13:10;8.27;;;6.78;;
44774;SDS011;31340;51.402;0.016;2023-04-15T04:15:39;8.10;;;6.05;;
44774;SDS011;31340;51.402;0.016;2023-04-15T04:18:08;8.75;;;7.40;;
44774;SDS011;31340;51.402;0.016;2023-04-15T04:20:37;8.95;;;6.80;;
44774;SDS011;31340;51.402;0.016;2023-04-15T04:23:06;7.15;;;5.63;;
44774;SDS011;31340;51.402;0.016;2023-04-15T04:25:34;8.63;;;6.75;;
44774;SDS011;31340;51.402;0.016;2023-04-15T04:28:03;7.78;;;6.03;;
44774;SDS011;31340;51.402;0.016;2023-04-15T04:30:33;9.10;;;7.13;;
44774;SDS011;31340;51.402;0.016;2023-04-15T04:35:32;6.97;;;5.65;;
44774;SDS011;31340;51.402;0.016;2023-04-15T04:38:02;8.65;;;5.55;;
44774;SDS011;31340;51.402;0.016;2023-04-15T04:40:31;8.00;;;6.13;;
44774;SDS011;31340;51.402;0.016;2023-04-15T04:43:00;8.27;;;6.00;;
44774;SDS011;31340;51.402;0.016;2023-04-15T04:45:29;10.60;;;5.90;;
44774;SDS011;31340;51.402;0.016;2023-04-15T04:47:58;8.23;;;6.55;;
44774;SDS011;31340;51.402;0.016;2023-04-15T04:50:27;9.52;;;7.07;;
44774;SDS011;31340;51.402;0.016;2023-04-15T04:52:56;8.68;;;6.47;;
44774;SDS011;31340;51.402;0.016;2023-04-15T04:55:25;7.93;;;6.40;;
44774;SDS011;31340;51.402;0.016;2023-04-15T04:57:54;10.27;;;6.70;;
44774;SDS011;31340;51.402;0.016;2023-04-15T05:00:23;10.95;;;7.88;;
44774;SDS011;31340;51.402;0.016;2023-04-15T05:02:52;10.05;;;7.43;;
44774;SDS011;31340;51.402;0.016;2023-04-15T05:05:21;9.98;;;7.68;;
44774;SDS011;31340;51.402;0.016;2023-04-15T05:07:50;16.20;;;8.73;;
44774;SDS011;31340;51.402;0.016;2023-04-15T05:10:19;12.85;;;7.97;;
44774;SDS011;31340;51.402;0.016;2023-04-15T05:12:48;10.10;;;6.97;;
44774;SDS011;31340;51.402;0.016;2023-04-15T05:15:17;9.80;;;7.15;;
44774;SDS011;31340;51.402;0.016;2023-04-15T05:17:46;10.77;;;7.50;;
44774;SDS011;31340;51.402;0.016;2023-04-15T05:20:15;10.98;;;7.18;;
44774;SDS011;31340;51.402;0.016;2023-04-15T05:22:44;9.55;;;6.85;;
44774;SDS011;31340;51.402;0.016;2023-04-15T05:25:13;9.73;;;7.00;;
44774;SDS011;31340;51.402;0.016;2023-04-15T05:27:41;9.68;;;6.75;;
44774;SDS011;31340;51.402;0.016;2023-04-15T05:30:10;11.98;;;8.07;;
44774;SDS011;31340;51.402;0.016;2023-04-15T05:32:40;12.38;;;8.07;;
44774;SDS011;31340;51.402;0.016;2023-04-15T05:35:09;10.55;;;6.97;;
44774;SDS011;31340;51.402;0.016;2023-04-15T05:37:38;8.90;;;7.05;;
44774;SDS011;31340;51.402;0.016;2023-04-15T05:40:07;9.48;;;6.55;;
44774;SDS011;31340;51.402;0.016;2023-04-15T05:42:37;10.20;;;7.63;;
44774;SDS011;31340;51.402;0.016;2023-04-15T05:45:06;14.02;;;8.05;;
44774;SDS011;31340;51.402;0.016;2023-04-15T05:47:36;10.00;;;7.38;;
44774;SDS011;31340;51.402;0.016;2023-04-15T05:50:05;9.98;;;6.95;;
44774;SDS011;31340;51.402;0.016;2023-04-15T05:52:34;9.75;;;7.10;;
44774;SDS011;31340;51.402;0.016;2023-04-15T05:55:03;8.73;;;6.32;;
44774;SDS011;31340;51.402;0.016;2023-04-15T05:57:32;10.30;;;6.72;;
44774;SDS011;31340;51.402;0.016;2023-04-15T06:00:01;9.13;;;6.55;;
44774;SDS011;31340;51.402;0.016;2023-04-15T06:02:36;8.98;;;6.65;;
44774;SDS011;31340;51.402;0.016;2023-04-15T06:05:06;9.68;;;7.15;;
44774;SDS011;31340;51.402;0.016;2023-04-15T06:07:39;14.73;;;8.95;;
44774;SDS011;31340;51.402;0.016;2023-04-15T06:10:09;10.98;;;7.82;;
44774;SDS011;31340;51.402;0.016;2023-04-15T06:12:38;13.48;;;8.93;;
44774;SDS011;31340;51.402;0.016;2023-04-15T06:15:07;11.57;;;8.40;;
44774;SDS011;31340;51.402;0.016;2023-04-15T06:17:37;12.57;;;8.93;;
44774;SDS011;31340;51.402;0.016;2023-04-15T06:20:06;13.80;;;8.70;;
44774;SDS011;31340;51.402;0.016;2023-04-15T06:22:36;15.43;;;9.75;;
44774;SDS011;31340;51.402;0.016;2023-04-15T06:25:08;13.93;;;9.98;;
44774;SDS011;31340;51.402;0.016;2023-04-15T06:27:38;12.63;;;9.25;;
44774;SDS011;31340;51.402;0.016;2023-04-15T06:30:07;12.98;;;9.65;;
44774;SDS011;31340;51.402;0.016;2023-04-15T06:32:36;17.38;;;11.15;;
44774;SDS011;31340;51.402;0.016;2023-04-15T06:35:05;17.05;;;11.77;;
44774;SDS011;31340;51.402;0.016;2023-04-15T06:37:34;14.23;;;10.50;;
44774;SDS011;31340;51.402;0.016;2023-04-15T06:40:03;17.75;;;11.95;;
44774;SDS011;31340;51.402;0.016;2023-04-15T06:42:33;15.27;;;10.30;;
44774;SDS011;31340;51.402;0.016;2023-04-15T06:45:04;15.50;;;11.77;;
44774;SDS011;31340;51.402;0.016;2023-04-15T06:47:33;17.10;;;11.17;;
44774;SDS011;31340;51.402;0.016;2023-04-15T06:50:02;20.33;;;13.88;;
44774;SDS011;31340;51.402;0.016;2023-04-15T06:52:31;18.65;;;13.52;;
44774;SDS011;31340;51.402;0.016;2023-04-15T06:55:00;19.75;;;12.68;;
44774;SDS011;31340;51.402;0.016;2023-04-15T06:57:29;20.60;;;13.98;;
44774;SDS011;31340;51.402;0.016;2023-04-15T07:00:02;18.05;;;11.68;;
44774;SDS011;31340;51.402;0.016;2023-04-15T07:02:33;19.15;;;13.88;;
44774;SDS011;31340;51.402;0.016;2023-04-15T07:05:01;17.98;;;13.07;;
44774;SDS011;31340;51.402;0.016;2023-04-15T07:07:31;18.13;;;12.35;;
44774;SDS011;31340;51.402;0.016;2023-04-15T07:10:00;17.10;;;11.93;;
44774;SDS011;31340;51.402;0.016;2023-04-15T07:12:30;17.93;;;12.43;;
44774;SDS011;31340;51.402;0.016;2023-04-15T07:14:59;18.38;;;12.43;;
44774;SDS011;31340;51.402;0.016;2023-04-15T07:17:28;14.35;;;10.20;;
44774;SDS011;31340;51.402;0.016;2023-04-15T07:19:57;16.15;;;11.68;;
44774;SDS011;31340;51.402;0.016;2023-04-15T07:22:26;15.55;;;12.35;;
44774;SDS011;31340;51.402;0.016;2023-04-15T07:24:55;15.13;;;10.75;;
44774;SDS011;31340;51.402;0.016;2023-04-15T07:27:23;13.77;;;9.65;;
44774;SDS011;31340;51.402;0.016;2023-04-15T07:29:53;12.55;;;9.50;;
44774;SDS011;31340;51.402;0.016;2023-04-15T07:32:22;13.38;;;9.30;;
44774;SDS011;31340;51.402;0.016;2023-04-15T07:34:51;12.80;;;9.73;;
44774;SDS011;31340;51.402;0.016;2023-04-15T07:37:20;13.35;;;9.32;;
44774;SDS011;31340;51.402;0.016;2023-04-15T07:39:51;13.18;;;10.07;;
44774;SDS011;31340;51.402;0.016;2023-04-15T07:42:20;14.15;;;10.15;;
44774;SDS011;31340;51.402;0.016;2023-04-15T07:44:49;12.40;;;9.82;;
44774;SDS011;31340;51.402;0.016;2023-04-15T07:47:19;13.68;;;10.07;;
44774;SDS011;31340;51.402;0.016;2023-04-15T07:49:48;15.05;;;9.60;;
44774;SDS011;31340;51.402;0.016;2023-04-15T07:52:18;15.77;;;9.80;;
44774;SDS011;31340;51.402;0.016;2023-04-15T07:54:47;14.05;;;10.05;;
44774;SDS011;31340;51.402;0.016;2023-04-15T07:57:16;15.68;;;9.80;;
44774;SDS011;31340;51.402;0.016;2023-04-15T07:59:45;13.77;;;9.98;;
44774;SDS011;31340;51.402;0.016;2023-04-15T08:02:14;11.93;;;8.40;;
44774;SDS011;31340;51.402;0.016;2023-04-15T08:04:43;14.43;;;9.65;;
44774;SDS011;31340;51.402;0.016;2023-04-15T08:07:12;11.32;;;8.40;;
44774;SDS011;31340;51.402;0.016;2023-04-15T08:09:41;12.20;;;8.38;;
44774;SDS011;31340;51.402;0.016;2023-04-15T08:12:10;9.93;;;7.97;;
44774;SDS011;31340;51.402;0.016;2023-04-15T08:14:40;13.02;;;9.20;;
44774;SDS011;31340;51.402;0.016;2023-04-15T08:17:09;10.70;;;8.30;;
44774;SDS011;31340;51.402;0.016;2023-04-15T08:19:39;11.00;;;7.65;;
44774;SDS011;31340;51.402;0.016;2023-04-15T08:22:08;11.85;;;7.13;;
44774;SDS011;31340;51.402;0.016;2023-04-15T08:24:45;9.32;;;6.38;;
44774;SDS011;31340;51.402;0.016;2023-04-15T08:27:14;22.23;;;7.82;;
44774;SDS011;31340;51.402;0.016;2023-04-15T08:29:43;9.85;;;7.05;;
44774;SDS011;31340;51.402;0.016;2023-04-15T08:32:13;10.98;;;6.93;;
44774;SDS011;31340;51.402;0.016;2023-04-15T08:34:42;12.77;;;7.65;;
44774;SDS011;31340;51.402;0.016;2023-04-15T08:37:11;8.18;;;6.82;;
44774;SDS011;31340;51.402;0.016;2023-04-15T08:39:40;9.90;;;6.78;;
44774;SDS011;31340;51.402;0.016;2023-04-15T08:42:15;9.52;;;7.10;;
44774;SDS011;31340;51.402;0.016;2023-04-15T08:44:45;14.50;;;7.30;;
44774;SDS011;31340;51.402;0.016;2023-04-15T08:47:15;10.18;;;7.13;;
44774;SDS011;31340;51.402;0.016;2023-04-15T08:49:50;14.90;;;7.80;;
44774;SDS011;31340;51.402;0.016;2023-04-15T08:52:23;9.38;;;5.85;;
44774;SDS011;31340;51.402;0.016;2023-04-15T08:54:54;10.63;;;7.90;;
44774;SDS011;31340;51.402;0.016;2023-04-15T08:57:26;10.40;;;7.07;;
44774;SDS011;31340;51.402;0.016;2023-04-15T08:59:56;12.47;;;7.07;;
44774;SDS011;31340;51.402;0.016;2023-04-15T09:02:25;9.68;;;7.18;;
44774;SDS011;31340;51.402;0.016;2023-04-15T09:04:54;9.00;;;7.00;;
44774;SDS011;31340;51.402;0.016;2023-04-15T09:07:24;15.10;;;7.82;;
44774;SDS011;31340;51.402;0.016;2023-04-15T09:09:52;13.27;;;7.90;;
44774;SDS011;31340;51.402;0.016;2023-04-15T09:12:21;10.93;;;7.38;;
44774;SDS011;31340;51.402;0.016;2023-04-15T09:14:50;8.68;;;6.53;;
44774;SDS011;31340;51.402;0.016;2023-04-15T09:17:19;13.35;;;8.70;;
44774;SDS011;31340;51.402;0.016;2023-04-15T09:19:49;9.75;;;7.97;;
44774;SDS011;31340;51.402;0.016;2023-04-15T09:22:34;15.85;;;9.25;;
44774;SDS011;31340;51.402;0.016;2023-04-15T09:25:26;10.80;;;8.38;;
44774;SDS011;31340;51.402;0.016;2023-04-15T09:30:26;12.73;;;9.02;;
44774;SDS011;31340;51.402;0.016;2023-04-15T09:32:57;12.13;;;8.68;;
44774;SDS011;31340;51.402;0.016;2023-04-15T09:35:27;11.38;;;7.82;;
44774;SDS011;31340;51.402;0.016;2023-04-15T09:38:14;12.50;;;8.00;;
44774;SDS011;31340;51.402;0.016;2023-04-15T09:40:42;11.40;;;8.35;;
44774;SDS011;31340;51.402;0.016;2023-04-15T09:43:11;12.18;;;8.15;;
44774;SDS011;31340;51.402;0.016;2023-04-15T09:45:46;12.90;;;8.63;;
44774;SDS011;31340;51.402;0.016;2023-04-15T09:48:20;13.05;;;8.40;;
44774;SDS011;31340;51.402;0.016;2023-04-15T09:50:50;12.38;;;8.80;;
44774;SDS011;31340;51.402;0.016;2023-04-15T09:53:21;10.10;;;7.57;;
44774;SDS011;31340;51.402;0.016;2023-04-15T09:55:51;10.98;;;8.00;;
44774;SDS011;31340;51.402;0.016;2023-04-15T09:58:25;11.18;;;7.32;;
44774;SDS011;31340;51.402;0.016;2023-04-15T10:00:55;10.15;;;6.28;;
44774;SDS011;31340;51.402;0.016;2023-04-15T10:03:26;11.65;;;7.65;;
44774;SDS011;31340;51.402;0.016;2023-04-15T10:05:58;13.18;;;6.90;;
44774;SDS011;31340;51.402;0.016;2023-04-15T10:08:29;12.50;;;7.60;;
44774;SDS011;31340;51.402;0.016;2023-04-15T10:11:00;12.95;;;7.07;;
44774;SDS011;31340;51.402;0.016;2023-04-15T10:13:30;11.00;;;6.87;;
44774;SDS011;31340;51.402;0.016;2023-04-15T10:16:05;12.13;;;7.30;;
44774;SDS011;31340;51.402;0.016;2023-04-15T10:18:41;10.75;;;6.90;;
44774;SDS011;31340;51.402;0.016;2023-04-15T10:21:11;13.18;;;7.40;;
44774;SDS011;31340;51.402;0.016;2023-04-15T10:23:46;12.98;;;8.52;;
44774;SDS011;31340;51.402;0.016;2023-04-15T10:26:16;8.55;;;6.10;;
44774;SDS011;31340;51.402;0.016;2023-04-15T10:28:45;12.90;;;7.53;;
44774;SDS011;31340;51.402;0.016;2023-04-15T10:31:16;9.48;;;6.85;;
44774;SDS011;31340;51.402;0.016;2023-04-15T10:33:47;11.60;;;7.13;;
44774;SDS011;31340;51.402;0.016;2023-04-15T10:36:17;14.75;;;7.60;;
44774;SDS011;31340;51.402;0.016;2023-04-15T10:38:47;7.93;;;6.35;;
44774;SDS011;31340;51.402;0.016;2023-04-15T10:41:25;9.32;;;6.88;;
44774;SDS011;31340;51.402;0.016;2023-04-15T10:44:03;9.55;;;7.10;;
44774;SDS011;31340;51.402;0.016;2023-04-15T10:49:10;7.93;;;5.93;;
44774;SDS011;31340;51.402;0.016;2023-04-15T10:51:43;10.57;;;6.90;;
44774;SDS011;31340;51.402;0.016;2023-04-15T10:54:30;11.07;;;6.57;;
44774;SDS011;31340;51.402;0.016;2023-04-15T10:57:08;9.60;;;6.38;;
44774;SDS011;31340;51.402;0.016;2023-04-15T11:02:47;13.13;;;6.05;;
44774;SDS011;31340;51.402;0.016;2023-04-15T11:05:21;9.20;;;5.85;;
44774;SDS011;31340;51.402;0.016;2023-04-15T11:08:11;9.20;;;6.37;;
44774;SDS011;31340;51.402;0.016;2023-04-15T11:15:39;13.70;;;6.65;;
44774;SDS011;31340;51.402;0.016;2023-04-15T11:23:30;7.90;;;5.32;;
44774;SDS011;31340;51.402;0.016;2023-04-15T11:26:02;13.40;;;6.30;;
44774;SDS011;31340;51.402;0.016;2023-04-15T11:28:37;14.02;;;5.35;;
44774;SDS011;31340;51.402;0.016;2023-04-15T11:31:09;8.90;;;4.95;;
44774;SDS011;31340;51.402;0.016;2023-04-15T11:33:52;10.05;;;5.78;;
44774;SDS011;31340;51.402;0.016;2023-04-15T11:36:29;14.57;;;6.75;;
44774;SDS011;31340;51.402;0.016;2023-04-15T11:38:59;8.20;;;4.35;;
44774;SDS011;31340;51.402;0.016;2023-04-15T11:41:28;12.18;;;4.68;;
44774;SDS011;31340;51.402;0.016;2023-04-15T11:43:57;8.70;;;4.60;;
44774;SDS011;31340;51.402;0.016;2023-04-15T11:46:29;8.15;;;4.53;;
44774;SDS011;31340;51.402;0.016;2023-04-15T11:48:59;9.63;;;4.78;;
44774;SDS011;31340;51.402;0.016;2023-04-15T11:51:30;5.88;;;4.03;;
44774;SDS011;31340;51.402;0.016;2023-04-15T11:56:26;9.68;;;4.82;;
44774;SDS011;31340;51.402;0.016;2023-04-15T11:58:54;8.60;;;4.20;;
44774;SDS011;31340;51.402;0.016;2023-04-15T12:01:36;9.33;;;4.90;;
44774;SDS011;31340;51.402;0.016;2023-04-15T12:04:10;11.88;;;4.82;;
44774;SDS011;31340;51.402;0.016;2023-04-15T12:06:38;7.50;;;4.40;;
44774;SDS011;31340;51.402;0.016;2023-04-15T12:16:58;9.43;;;3.95;;
44774;SDS011;31340;51.402;0.016;2023-04-15T12:19:28;9.32;;;4.53;;
44774;SDS011;31340;51.402;0.016;2023-04-15T12:22:04;10.10;;;4.47;;
44774;SDS011;31340;51.402;0.016;2023-04-15T12:24:36;11.48;;;4.25;;
44774;SDS011;31340;51.402;0.016;2023-04-15T12:27:10;10.45;;;3.75;;
44774;SDS011;31340;51.402;0.016;2023-04-15T12:29:39;11.73;;;4.07;;
44774;SDS011;31340;51.402;0.016;2023-04-15T12:32:15;6.05;;;3.53;;
44774;SDS011;31340;51.402;0.016;2023-04-15T12:34:51;8.68;;;4.15;;
44774;SDS011;31340;51.402;0.016;2023-04-15T12:37:20;10.40;;;3.88;;
44774;SDS011;31340;51.402;0.016;2023-04-15T12:39:48;8.75;;;3.83;;
44774;SDS011;31340;51.402;0.016;2023-04-15T12:42:16;8.70;;;3.40;;
44774;SDS011;31340;51.402;0.016;2023-04-15T12:44:45;7.38;;;3.33;;
44774;SDS011;31340;51.402;0.016;2023-04-15T12:47:12;8.32;;;3.80;;
44774;SDS011;31340;51.402;0.016;2023-04-15T12:49:40;6.85;;;3.80;;
44774;SDS011;31340;51.402;0.016;2023-04-15T12:52:08;9.18;;;4.55;;
44774;SDS011;31340;51.402;0.016;2023-04-15T12:54:36;10.88;;;4.47;;
44774;SDS011;31340;51.402;0.016;2023-04-15T12:57:05;7.70;;;4.30;;
44774;SDS011;31340;51.402;0.016;2023-04-15T12:59:34;8.73;;;4.38;;
44774;SDS011;31340;51.402;0.016;2023-04-15T13:02:02;9.05;;;3.60;;
44774;SDS011;31340;51.402;0.016;2023-04-15T13:04:30;9.55;;;4.00;;
44774;SDS011;31340;51.402;0.016;2023-04-15T13:06:58;12.50;;;4.43;;
44774;SDS011;31340;51.402;0.016;2023-04-15T13:09:25;7.18;;;3.28;;
44774;SDS011;31340;51.402;0.016;2023-04-15T13:11:53;9.65;;;4.35;;
44774;SDS011;31340;51.402;0.016;2023-04-15T13:14:22;9.52;;;3.83;;
44774;SDS011;31340;51.402;0.016;2023-04-15T13:16:49;6.72;;;3.60;;
44774;SDS011;31340;51.402;0.016;2023-04-15T13:19:17;12.52;;;4.03;;
44774;SDS011;31340;51.402;0.016;2023-04-15T13:21:44;11.38;;;4.70;;
44774;SDS011;31340;51.402;0.016;2023-04-15T13:24:12;7.93;;;3.40;;
44774;SDS011;31340;51.402;0.016;2023-04-15T13:26:39;7.30;;;3.80;;
44774;SDS011;31340;51.402;0.016;2023-04-15T13:29:08;7.30;;;3.40;;
44774;SDS011;31340;51.402;0.016;2023-04-15T13:31:35;10.20;;;3.88;;
44774;SDS011;31340;51.402;0.016;2023-04-15T13:34:03;7.75;;;3.38;;
44774;SDS011;31340;51.402;0.016;2023-04-15T13:36:31;8.50;;;4.03;;
44774;SDS011;31340;51.402;0.016;2023-04-15T13:38:59;8.27;;;3.70;;
44774;SDS011;31340;51.402;0.016;2023-04-15T13:41:27;8.80;;;3.78;;
44774;SDS011;31340;51.402;0.016;2023-04-15T13:43:54;8.68;;;3.45;;
44774;SDS011;31340;51.402;0.016;2023-04-15T13:46:23;6.35;;;3.75;;
44774;SDS011;31340;51.402;0.016;2023-04-15T13:48:52;11.05;;;3.88;;
44774;SDS011;31340;51.402;0.016;2023-04-15T13:51:19;9.32;;;3.88;;
44774;SDS011;31340;51.402;0.016;2023-04-15T13:53:47;11.70;;;4.03;;
44774;SDS011;31340;51.402;0.016;2023-04-15T13:56:14;11.85;;;4.05;;
44774;SDS011;31340;51.402;0.016;2023-04-15T13:58:42;9.20;;;3.92;;
44774;SDS011;31340;51.402;0.016;2023-04-15T14:01:10;10.25;;;3.75;;
44774;SDS011;31340;51.402;0.016;2023-04-15T14:03:37;7.63;;;3.60;;
44774;SDS011;31340;51.402;0.016;2023-04-15T14:06:05;9.00;;;3.08;;
44774;SDS011;31340;51.402;0.016;2023-04-15T14:08:33;10.32;;;3.50;;
44774;SDS011;31340;51.402;0.016;2023-04-15T14:11:00;10.95;;;3.50;;
44774;SDS011;31340;51.402;0.016;2023-04-15T14:13:28;8.02;;;3.38;;
44774;SDS011;31340;51.402;0.016;2023-04-15T14:15:56;7.03;;;3.60;;
44774;SDS011;31340;51.402;0.016;2023-04-15T14:18:23;7.85;;;3.70;;
44774;SDS011;31340;51.402;0.016;2023-04-15T14:20:51;8.95;;;3.92;;
44774;SDS011;31340;51.402;0.016;2023-04-15T14:23:18;7.97;;;3.53;;
44774;SDS011;31340;51.402;0.016;2023-04-15T14:25:46;9.02;;;4.03;;
44774;SDS011;31340;51.402;0.016;2023-04-15T14:28:14;10.02;;;3.25;;
44774;SDS011;31340;51.402;0.016;2023-04-15T14:30:42;6.50;;;2.95;;
44774;SDS011;31340;51.402;0.016;2023-04-15T14:33:10;7.22;;;3.40;;
44774;SDS011;31340;51.402;0.016;2023-04-15T14:35:38;9.77;;;5.05;;
44774;SDS011;31340;51.402;0.016;2023-04-15T14:38:06;7.25;;;3.17;;
44774;SDS011;31340;51.402;0.016;2023-04-15T14:40:37;8.73;;;3.70;;
44774;SDS011;31340;51.402;0.016;2023-04-15T14:43:05;7.80;;;3.67;;
44774;SDS011;31340;51.402;0.016;2023-04-15T14:45:32;9.18;;;3.45;;
44774;SDS011;31340;51.402;0.016;2023-04-15T14:48:01;9.48;;;4.20;;
44774;SDS011;31340;51.402;0.016;2023-04-15T14:50:28;8.75;;;4.05;;
44774;SDS011;31340;51.402;0.016;2023-04-15T14:52:57;9.07;;;3.88;;
44774;SDS011;31340;51.402;0.016;2023-04-15T14:55:25;7.50;;;3.63;;
44774;SDS011;31340;51.402;0.016;2023-04-15T14:57:52;7.05;;;3.28;;
44774;SDS011;31340;51.402;0.016;2023-04-15T15:00:20;10.25;;;3.65;;
44774;SDS011;31340;51.402;0.016;2023-04-15T15:02:48;9.35;;;5.53;;
44774;SDS011;31340;51.402;0.016;2023-04-15T15:05:15;12.27;;;4.85;;
44774;SDS011;31340;51.402;0.016;2023-04-15T15:07:43;9.70;;;4.85;;
44774;SDS011;31340;51.402;0.016;2023-04-15T15:10:11;11.00;;;4.55;;
44774;SDS011;31340;51.402;0.016;2023-04-15T15:12:39;8.23;;;3.90;;
44774;SDS011;31340;51.402;0.016;2023-04-15T15:15:07;8.27;;;4.35;;
44774;SDS011;31340;51.402;0.016;2023-04-15T15:17:55;9.18;;;4.65;;
44774;SDS011;31340;51.402;0.016;2023-04-15T15:20:23;10.32;;;3.80;;
44774;SDS011;31340;51.402;0.016;2023-04-15T15:22:51;12.18;;;4.25;;
44774;SDS011;31340;51.402;0.016;2023-04-15T15:25:18;10.52;;;3.92;;